createdAt,value
2019-05-14T00:00:34.864Z,100.00
2019-05-14T00:03:02.343Z,100.00
2019-05-14T00:05:28.450Z,100.00
2019-05-14T00:07:54.416Z,99.22
2019-05-14T00:10:21.860Z,100.00
2019-05-14T00:13:07.988Z,100.00
2019-05-14T00:15:33.817Z,100.00
2019-05-14T00:18:01.238Z,100.00
2019-05-14T00:20:27.427Z,100.00
2019-05-14T00:22:53.381Z,100.00
2019-05-14T00:25:19.225Z,100.00
2019-05-14T00:27:45.070Z,100.00
2019-05-14T00:30:52.638Z,100.00
2019-05-14T00:33:18.504Z,100.00
2019-05-14T00:35:44.436Z,100.00
2019-05-14T00:38:11.929Z,100.00
2019-05-14T00:40:38.054Z,100.00
2019-05-14T00:43:03.900Z,100.00
2019-05-14T00:45:31.292Z,100.00
2019-05-14T00:47:57.554Z,100.00
2019-05-14T00:50:23.408Z,100.00
2019-05-14T00:52:51.477Z,100.00
2019-05-14T00:55:17.216Z,100.00
2019-05-14T00:57:43.037Z,100.00
2019-05-14T01:00:52.526Z,100.00
2019-05-14T01:03:18.255Z,100.00
2019-05-14T01:05:44.107Z,99.97
2019-05-14T01:08:31.854Z,100.00
2019-05-14T01:10:57.688Z,100.00
2019-05-14T01:13:23.635Z,100.00
2019-05-14T01:15:51.903Z,100.00
2019-05-14T01:18:17.231Z,100.00
2019-05-14T01:20:43.076Z,100.00
2019-05-14T01:23:08.896Z,100.00
2019-05-14T01:25:34.749Z,100.00
2019-05-14T01:30:47.943Z,100.00
2019-05-14T01:33:13.882Z,100.00
2019-05-14T01:35:41.897Z,100.00
2019-05-14T01:38:07.655Z,100.00
2019-05-14T01:40:33.485Z,100.00
2019-05-14T01:42:59.340Z,100.00
2019-05-14T01:45:45.066Z,100.00
2019-05-14T01:48:11.671Z,100.00
2019-05-14T01:50:38.680Z,100.00
2019-05-14T01:53:04.526Z,100.00
2019-05-14T01:55:32.450Z,100.00
2019-05-14T01:57:58.264Z,100.00
2019-05-14T02:00:24.186Z,100.00
2019-05-14T02:02:52.263Z,100.00
2019-05-14T02:05:17.909Z,100.00
2019-05-14T02:07:43.750Z,100.00
2019-05-14T02:10:52.693Z,100.00
2019-05-14T02:13:21.284Z,100.00
2019-05-14T02:15:46.809Z,100.00
2019-05-14T02:18:32.627Z,100.00
2019-05-14T02:21:18.454Z,100.00
2019-05-14T02:23:44.313Z,100.00
2019-05-14T02:26:11.394Z,100.00
2019-05-14T02:28:37.923Z,100.00
2019-05-14T02:31:04.228Z,100.00
2019-05-14T02:33:31.719Z,100.00
2019-05-14T02:35:59.937Z,100.00
2019-05-14T02:38:25.333Z,100.00
2019-05-14T02:40:51.273Z,100.00
2019-05-14T02:43:20.105Z,100.00
2019-05-14T02:46:00.780Z,100.00
2019-05-14T02:48:12.710Z,100.00
2019-05-14T02:50:39.681Z,100.00
2019-05-14T02:53:06.511Z,100.00
2019-05-14T02:55:32.537Z,100.00
2019-05-14T02:57:59.813Z,100.00
2019-05-14T03:00:26.165Z,100.00
2019-05-14T03:02:52.019Z,100.00
2019-05-14T03:05:19.189Z,100.00
2019-05-14T03:07:45.799Z,100.00
2019-05-14T03:10:11.762Z,100.00
2019-05-14T03:12:39.526Z,100.00
2019-05-14T03:15:49.495Z,100.00
2019-05-14T03:18:14.835Z,100.00
2019-05-14T03:20:40.665Z,100.00
2019-05-14T03:23:09.977Z,100.00
2019-05-14T03:25:34.461Z,100.00
2019-05-14T03:28:00.330Z,100.00
2019-05-14T03:30:31.581Z,100.00
2019-05-14T03:32:54.117Z,100.00
2019-05-14T03:35:24.334Z,100.00
2019-05-14T03:37:49.705Z,100.00
2019-05-14T03:40:15.761Z,100.00
2019-05-14T03:42:43.600Z,100.00
2019-05-14T03:45:51.083Z,100.00
2019-05-14T03:48:19.065Z,100.00
2019-05-14T03:50:44.796Z,100.00
2019-05-14T03:53:10.730Z,100.00
2019-05-14T03:55:40.011Z,100.00
2019-05-14T03:58:04.346Z,100.00
2019-05-14T04:01:11.851Z,100.00
2019-05-14T04:03:39.838Z,100.00
2019-05-14T04:06:49.692Z,100.00
2019-05-14T04:09:59.336Z,100.00
2019-05-14T04:13:08.943Z,100.00
2019-05-14T04:16:15.364Z,100.00
2019-05-14T04:19:22.906Z,100.00
2019-05-14T04:22:10.156Z,100.00
2019-05-14T04:25:19.449Z,100.00
2019-05-14T04:28:29.862Z,100.00
2019-05-14T04:30:55.451Z,100.00
2019-05-14T04:34:02.942Z,100.00
2019-05-14T04:36:29.960Z,100.00
2019-05-14T04:39:00.351Z,100.00
2019-05-14T04:41:24.902Z,100.00
2019-05-14T04:44:10.715Z,100.00
2019-05-14T04:46:59.720Z,100.00
2019-05-14T04:49:24.274Z,100.00
2019-05-14T04:51:50.604Z,100.00
2019-05-14T04:54:19.469Z,100.00
2019-05-14T04:56:49.752Z,100.00
2019-05-14T04:59:14.378Z,100.00
2019-05-14T05:01:40.462Z,100.00
2019-05-14T05:04:09.342Z,100.00
2019-05-14T05:06:34.043Z,100.00
2019-05-14T05:09:00.299Z,100.00
2019-05-14T05:11:29.105Z,100.00
2019-05-14T05:13:55.579Z,100.00
2019-05-14T05:16:21.533Z,100.00
2019-05-14T05:18:49.043Z,98.00
2019-05-14T05:21:15.234Z,97.28
2019-05-14T05:23:41.067Z,97.64
2019-05-14T05:26:09.210Z,94.01
2019-05-14T05:28:34.871Z,92.71
2019-05-14T05:31:00.930Z,91.99
2019-05-14T05:33:29.147Z,89.37
2019-05-14T05:35:54.719Z,88.62
2019-05-14T05:38:20.665Z,88.91
2019-05-14T05:40:48.563Z,88.67
2019-05-14T05:43:14.426Z,86.11
2019-05-14T05:45:40.371Z,85.05
2019-05-14T05:48:08.266Z,83.88
2019-05-14T05:50:34.264Z,82.54
2019-05-14T05:53:00.117Z,81.44
2019-05-14T05:55:28.627Z,81.17
2019-05-14T05:58:13.700Z,77.61
2019-05-14T06:00:40.410Z,77.61
2019-05-14T06:03:10.881Z,78.10
2019-05-14T06:05:35.465Z,76.76
2019-05-14T06:08:01.632Z,77.54
2019-05-14T06:10:29.186Z,75.57
2019-05-14T06:12:55.401Z,74.41
2019-05-14T06:15:21.354Z,73.48
2019-05-14T06:17:49.266Z,73.45
2019-05-14T06:20:14.963Z,72.30
2019-05-14T06:22:40.781Z,72.30
2019-05-14T06:25:10.530Z,71.02
2019-05-14T06:27:34.694Z,71.08
2019-05-14T06:30:00.528Z,71.30
2019-05-14T06:32:28.854Z,67.22
2019-05-14T06:34:54.244Z,66.49
2019-05-14T06:37:20.188Z,65.25
2019-05-14T06:39:48.321Z,61.54
2019-05-14T06:42:13.957Z,61.46
2019-05-14T06:44:39.894Z,59.27
2019-05-14T06:47:05.820Z,58.56
2019-05-14T06:49:31.779Z,57.41
2019-05-14T06:51:59.302Z,56.91
2019-05-14T06:54:25.479Z,58.36
2019-05-14T06:56:51.418Z,57.37
2019-05-14T06:59:18.173Z,58.51
2019-05-14T07:01:45.271Z,56.13
2019-05-14T07:04:11.291Z,58.29
2019-05-14T07:06:39.172Z,56.40
2019-05-14T07:09:05.214Z,54.70
2019-05-14T07:11:31.179Z,57.65
2019-05-14T07:13:58.144Z,57.65
2019-05-14T07:16:24.769Z,57.44
2019-05-14T07:18:53.964Z,55.86
2019-05-14T07:21:18.788Z,56.25
2019-05-14T07:23:48.697Z,56.80
2019-05-14T07:26:14.248Z,53.92
2019-05-14T07:28:42.491Z,54.22
2019-05-14T07:31:29.107Z,51.84
2019-05-14T07:33:58.092Z,51.84
2019-05-14T07:36:43.315Z,49.54
2019-05-14T07:39:09.635Z,49.54
2019-05-14T07:41:39.074Z,52.54
2019-05-14T07:44:05.118Z,51.89
2019-05-14T07:46:30.981Z,54.05
2019-05-14T07:49:07.147Z,54.05
2019-05-14T07:51:44.467Z,54.78
2019-05-14T07:54:10.393Z,54.78
2019-05-14T07:56:38.478Z,54.46
2019-05-14T07:59:04.295Z,53.13
2019-05-14T08:01:43.460Z,50.11
2019-05-14T08:04:11.276Z,50.11
2019-05-14T08:06:39.436Z,47.87
2019-05-14T08:09:24.946Z,49.69
2019-05-14T08:11:50.881Z,49.69
2019-05-14T08:14:18.502Z,49.13
2019-05-14T08:17:04.449Z,48.47
2019-05-14T08:19:34.009Z,48.47
2019-05-14T08:21:58.826Z,47.19
2019-05-14T08:24:48.734Z,47.27
2019-05-14T08:27:14.125Z,47.27
2019-05-14T08:29:40.256Z,49.32
2019-05-14T08:32:28.468Z,46.72
2019-05-14T08:35:15.753Z,46.71
2019-05-14T08:37:41.612Z,46.71
2019-05-14T08:40:49.089Z,47.18
2019-05-14T08:43:15.034Z,48.01
2019-05-14T08:45:40.884Z,48.26
2019-05-14T08:48:09.036Z,47.74
2019-05-14T08:50:34.872Z,49.12
2019-05-14T08:53:20.695Z,49.63
2019-05-14T08:55:48.812Z,49.63
2019-05-14T08:58:34.741Z,47.43
2019-05-14T09:01:00.836Z,45.60
2019-05-14T09:03:28.728Z,45.60
2019-05-14T09:05:57.734Z,46.03
2019-05-14T09:08:22.240Z,44.80
2019-05-14T09:10:49.724Z,44.80
2019-05-14T09:13:18.215Z,45.63
2019-05-14T09:15:43.590Z,45.63
2019-05-14T09:18:11.726Z,46.16
2019-05-14T09:20:38.171Z,46.12
2019-05-14T09:23:04.221Z,46.47
2019-05-14T09:25:30.095Z,46.47
2019-05-14T09:27:58.415Z,47.61
2019-05-14T09:30:23.995Z,49.17
2019-05-14T09:32:49.916Z,49.17
2019-05-14T09:35:18.568Z,49.14
2019-05-14T09:37:43.491Z,47.98
2019-05-14T09:40:09.460Z,47.98
2019-05-14T09:42:35.363Z,48.11
2019-05-14T09:45:01.442Z,49.06
2019-05-14T09:47:28.236Z,46.63
2019-05-14T09:49:54.302Z,45.33
2019-05-14T09:52:20.196Z,45.33
2019-05-14T09:54:46.079Z,48.17
2019-05-14T09:57:11.929Z,47.29
2019-05-14T09:59:38.426Z,48.19
2019-05-14T10:02:04.720Z,46.87
2019-05-14T10:04:30.676Z,44.12
2019-05-14T10:06:59.115Z,44.12
2019-05-14T10:09:24.645Z,44.46
2019-05-14T10:11:50.486Z,44.46
2019-05-14T10:14:16.356Z,41.50
2019-05-14T10:16:42.229Z,41.59
2019-05-14T10:19:08.080Z,42.29
2019-05-14T10:21:34.009Z,45.95
2019-05-14T10:23:59.866Z,44.76
2019-05-14T10:26:25.704Z,44.49
2019-05-14T10:28:51.549Z,45.18
2019-05-14T10:31:18.363Z,43.67
2019-05-14T10:33:45.341Z,43.57
2019-05-14T10:36:11.206Z,40.81
2019-05-14T10:38:38.838Z,40.59
2019-05-14T10:41:24.660Z,39.40
2019-05-14T10:43:50.489Z,39.40
2019-05-14T10:46:19.129Z,41.69
2019-05-14T10:49:16.506Z,45.63
2019-05-14T10:51:32.314Z,45.63
2019-05-14T10:53:59.398Z,42.94
2019-05-14T10:56:45.794Z,44.27
2019-05-14T10:59:11.724Z,42.64
2019-05-14T11:01:39.071Z,42.64
2019-05-14T11:04:25.197Z,44.26
2019-05-14T11:06:51.073Z,44.26
2019-05-14T11:09:18.077Z,44.96
2019-05-14T11:11:44.758Z,44.20
2019-05-14T11:14:10.702Z,43.26
2019-05-14T11:16:41.627Z,43.80
2019-05-14T11:19:24.293Z,44.59
2019-05-14T11:22:09.997Z,43.95
2019-05-14T11:24:38.323Z,43.95
2019-05-14T11:27:23.568Z,41.68
2019-05-14T11:29:49.414Z,41.68
2019-05-14T11:32:15.343Z,42.32
2019-05-14T11:34:41.304Z,42.31
2019-05-14T11:37:08.546Z,41.20
2019-05-14T11:39:54.898Z,41.10
2019-05-14T11:42:20.754Z,41.10
2019-05-14T11:44:48.645Z,38.23
2019-05-14T11:47:34.211Z,39.52
2019-05-14T11:50:00.158Z,41.21
2019-05-14T11:52:26.025Z,41.21
2019-05-14T11:54:51.863Z,40.50
2019-05-14T11:57:19.291Z,39.92
2019-05-14T12:00:29.536Z,41.35
2019-05-14T12:02:55.029Z,41.35
2019-05-14T12:05:20.864Z,41.95
2019-05-14T12:07:46.719Z,41.79
2019-05-14T12:10:12.574Z,42.82
2019-05-14T12:12:38.505Z,42.95
2019-05-14T12:15:48.325Z,42.94
2019-05-14T12:18:33.644Z,45.03
2019-05-14T12:20:59.688Z,45.03
2019-05-14T12:23:29.618Z,45.84
2019-05-14T12:25:54.843Z,44.91
2019-05-14T12:28:20.724Z,44.92
2019-05-14T12:30:48.944Z,42.17
2019-05-14T12:33:34.203Z,46.60
2019-05-14T12:36:20.051Z,47.29
2019-05-14T12:38:45.927Z,47.29
2019-05-14T12:41:11.819Z,45.39
2019-05-14T12:43:39.689Z,43.64
2019-05-14T12:46:25.437Z,43.61
2019-05-14T12:49:11.825Z,46.50
2019-05-14T12:51:59.192Z,50.71
2019-05-14T12:54:45.471Z,52.93
2019-05-14T12:57:11.423Z,52.93
2019-05-14T12:59:38.182Z,47.77
2019-05-14T13:02:05.132Z,44.84
2019-05-14T13:04:50.872Z,43.82
2019-05-14T13:07:19.065Z,43.76
2019-05-14T13:10:04.490Z,50.47
2019-05-14T13:12:30.329Z,50.47
2019-05-14T13:14:57.882Z,56.69
2019-05-14T13:17:43.917Z,83.00
2019-05-14T13:20:13.618Z,83.00
2019-05-14T13:23:19.311Z,92.43
2019-05-14T13:25:45.393Z,93.03
2019-05-14T13:28:11.433Z,92.44
2019-05-14T13:30:37.410Z,92.67
2019-05-14T13:33:03.349Z,86.89
2019-05-14T13:35:29.369Z,77.48
2019-05-14T13:37:55.422Z,75.36
2019-05-14T13:40:21.580Z,75.31
2019-05-14T13:42:49.177Z,67.17
2019-05-14T13:45:15.234Z,60.71
2019-05-14T13:47:41.179Z,60.71
2019-05-14T13:50:08.496Z,60.34
2019-05-14T13:52:35.348Z,59.83
2019-05-14T13:55:01.318Z,57.29
2019-05-14T13:57:28.692Z,55.56
2019-05-14T13:59:55.172Z,50.59
2019-05-14T14:02:21.060Z,49.36
2019-05-14T14:04:48.280Z,47.15
2019-05-14T14:07:14.876Z,44.48
2019-05-14T14:09:40.856Z,43.22
2019-05-14T14:12:08.247Z,43.07
2019-05-14T14:14:34.499Z,42.92
2019-05-14T14:17:00.371Z,42.71
2019-05-14T14:19:28.185Z,43.77
2019-05-14T14:21:54.189Z,42.48
2019-05-14T14:24:20.121Z,42.87
2019-05-14T14:26:45.943Z,42.77
2019-05-14T14:29:12.001Z,41.96
2019-05-14T14:31:41.420Z,43.90
2019-05-14T14:34:05.795Z,43.55
2019-05-14T14:36:55.084Z,44.55
2019-05-14T14:39:19.509Z,45.13
2019-05-14T14:41:45.377Z,45.54
2019-05-14T14:44:31.386Z,47.24
2019-05-14T14:46:57.845Z,45.67
2019-05-14T14:49:44.978Z,48.25
2019-05-14T14:52:12.178Z,52.34
2019-05-14T14:54:58.930Z,54.07
2019-05-14T14:57:46.583Z,55.22
2019-05-14T15:00:54.227Z,55.22
2019-05-14T15:03:21.141Z,56.67
2019-05-14T15:05:49.803Z,57.20
2019-05-14T15:08:15.797Z,56.72
2019-05-14T15:10:41.757Z,57.88
2019-05-14T15:13:09.258Z,56.17
2019-05-14T15:15:35.521Z,56.64
2019-05-14T15:18:01.481Z,54.57
2019-05-14T15:21:09.715Z,55.88
2019-05-14T15:24:21.139Z,57.05
2019-05-14T15:27:14.645Z,84.83
